San Francisco, California
Traffic Map
Current Weather Conditions
San Francisco, California
Clear
Clear
76°
Feels Like: 76°
Wind Chill: 76° Ceiling: Unl
Heat Index: 76° Visibility: 10mi
Dew Point: 54° Wind: 22mph
Humidity: 46% Direction: 280° (W)
Pressure: 30.05in Gusts: 0mph
Raw Report DataKSFO 242356Z 28019KT 10SM CLR 24/12 A3005 RMK AO2 SLP174 T02440122 10278 20206 56016
Traffic Incident Summary
Active as of:
Severity:
Category:
InformationThere was an issue retrieving the traffic information for this location. Please try a different location or try again shortly.
Advertisements
Track Severe Weather on mobile